createdAt,value
2022-09-27T00:00:23.808Z,12.66
2022-09-27T00:01:23.865Z,12.63
2022-09-27T00:02:23.824Z,12.64
2022-09-27T00:03:23.767Z,12.64
2022-09-27T00:04:23.767Z,12.64
2022-09-27T00:05:23.746Z,12.63
2022-09-27T00:06:23.726Z,12.62
2022-09-27T00:07:23.720Z,12.63
2022-09-27T00:08:23.693Z,12.60
2022-09-27T00:09:23.683Z,12.60
2022-09-27T00:10:23.676Z,12.62
2022-09-27T00:11:23.656Z,12.60
2022-09-27T00:12:23.646Z,12.62
2022-09-27T00:13:23.632Z,12.60
2022-09-27T00:14:23.617Z,12.59
2022-09-27T00:15:23.624Z,12.59
2022-09-27T00:16:23.624Z,12.60
2022-09-27T00:17:23.659Z,12.59
2022-09-27T00:18:23.626Z,12.59
2022-09-27T00:19:23.565Z,12.57
2022-09-27T00:20:23.545Z,12.56
2022-09-27T00:21:23.587Z,12.59
2022-09-27T00:22:23.526Z,12.54
2022-09-27T00:23:23.495Z,12.56
2022-09-27T00:24:23.498Z,12.52
2022-09-27T00:25:23.488Z,12.54
2022-09-27T00:26:23.477Z,12.52
2022-09-27T00:27:23.479Z,12.54
2022-09-27T00:28:23.456Z,12.52
2022-09-27T00:29:23.437Z,12.52
2022-09-27T00:30:23.430Z,12.52
2022-09-27T00:31:23.443Z,12.52
2022-09-27T00:32:23.406Z,12.52
2022-09-27T00:33:23.377Z,12.49
2022-09-27T00:34:23.357Z,12.48
2022-09-27T00:35:23.347Z,12.48
2022-09-27T00:36:23.335Z,12.46
2022-09-27T00:37:23.336Z,12.48
2022-09-27T00:38:23.327Z,12.48
2022-09-27T00:39:23.297Z,12.46
2022-09-27T00:40:23.365Z,12.45
2022-09-27T00:41:23.290Z,12.46
2022-09-27T00:42:23.269Z,12.46
2022-09-27T00:43:23.271Z,12.45
2022-09-27T00:44:23.247Z,12.45
2022-09-27T00:45:23.262Z,12.45
2022-09-27T00:46:23.255Z,12.46
2022-09-27T00:47:23.215Z,12.46
2022-09-27T00:48:23.187Z,12.45
2022-09-27T00:49:23.166Z,12.45
2022-09-27T00:50:23.158Z,12.45
2022-09-27T00:51:23.141Z,12.45
2022-09-27T00:52:23.142Z,12.45
2022-09-27T00:53:23.129Z,12.44
2022-09-27T00:54:23.146Z,12.44
2022-09-27T00:55:23.095Z,12.44
2022-09-27T00:56:23.079Z,12.42
2022-09-27T00:57:23.069Z,12.41
2022-09-27T00:58:23.062Z,12.41
2022-09-27T00:59:23.046Z,12.42
2022-09-27T01:00:30.053Z,12.41
2022-09-27T01:01:23.115Z,12.41
2022-09-27T01:02:23.042Z,12.39
2022-09-27T01:03:22.982Z,12.38
2022-09-27T01:04:22.981Z,12.37
2022-09-27T01:05:22.973Z,12.38
2022-09-27T01:06:22.964Z,12.37
2022-09-27T01:07:22.933Z,12.37
2022-09-27T01:08:22.930Z,12.37
2022-09-27T01:09:22.915Z,12.37
2022-09-27T01:10:22.907Z,12.34
2022-09-27T01:11:22.894Z,12.37
2022-09-27T01:12:22.885Z,12.37
2022-09-27T01:13:22.883Z,12.37
2022-09-27T01:14:22.871Z,12.34
2022-09-27T01:15:22.985Z,12.37
2022-09-27T01:16:22.825Z,12.34
2022-09-27T01:17:22.813Z,12.34
2022-09-27T01:18:22.814Z,12.33
2022-09-27T01:19:22.782Z,12.33
2022-09-27T01:20:22.772Z,12.34
2022-09-27T01:21:22.765Z,12.31
2022-09-27T01:22:22.756Z,12.31
2022-09-27T01:23:22.744Z,12.33
2022-09-27T01:24:22.801Z,12.31
2022-09-27T01:25:22.716Z,12.31
2022-09-27T01:26:22.685Z,12.31
2022-09-27T01:27:22.670Z,12.33
2022-09-27T01:28:22.664Z,12.33
2022-09-27T01:29:22.673Z,12.33
2022-09-27T01:30:22.632Z,12.31
2022-09-27T01:31:22.760Z,12.33
2022-09-27T01:32:22.605Z,12.33
2022-09-27T01:33:22.592Z,12.34
2022-09-27T01:34:22.595Z,12.34
2022-09-27T01:35:22.603Z,12.34
2022-09-27T01:36:22.576Z,12.33
2022-09-27T01:37:22.565Z,12.34
2022-09-27T01:38:22.535Z,12.37
2022-09-27T01:39:22.536Z,12.34
2022-09-27T01:40:22.582Z,12.38
2022-09-27T01:41:22.568Z,12.38
2022-09-27T01:42:22.662Z,12.39
2022-09-27T01:43:22.514Z,12.39
2022-09-27T01:44:22.463Z,12.41
2022-09-27T01:45:22.437Z,12.42
2022-09-27T01:46:22.496Z,12.41
2022-09-27T01:47:22.415Z,12.41
2022-09-27T01:48:22.395Z,12.42
2022-09-27T01:49:22.383Z,12.44
2022-09-27T01:50:22.394Z,12.44
2022-09-27T01:51:22.374Z,12.44
2022-09-27T01:52:22.377Z,12.44
2022-09-27T01:53:22.345Z,12.45
2022-09-27T01:54:22.346Z,12.45
2022-09-27T01:55:22.337Z,12.46
2022-09-27T01:56:22.308Z,12.46
2022-09-27T01:57:22.297Z,12.49
2022-09-27T01:58:22.276Z,12.49
2022-09-27T01:59:22.285Z,12.51
2022-09-27T02:00:22.280Z,12.51
2022-09-27T02:01:22.298Z,12.54
2022-09-27T02:02:22.268Z,12.52
2022-09-27T02:03:22.230Z,12.56
2022-09-27T02:04:22.197Z,12.57
2022-09-27T02:05:22.187Z,12.57
2022-09-27T02:06:22.195Z,12.59
2022-09-27T02:07:22.167Z,12.59
2022-09-27T02:08:22.180Z,12.63
2022-09-27T02:09:22.170Z,12.62
2022-09-27T02:10:22.116Z,12.62
2022-09-27T02:11:22.117Z,12.64
2022-09-27T02:12:22.101Z,12.64
2022-09-27T02:13:22.077Z,12.64
2022-09-27T02:14:22.077Z,12.66
2022-09-27T02:15:22.057Z,12.67
2022-09-27T02:16:22.115Z,12.69
2022-09-27T02:17:22.024Z,12.69
2022-09-27T02:18:22.017Z,12.70
2022-09-27T02:19:21.996Z,12.70
2022-09-27T02:20:22.016Z,12.71
2022-09-27T02:21:21.985Z,12.70
2022-09-27T02:22:22.034Z,12.74
2022-09-27T02:23:21.947Z,12.70
2022-09-27T02:24:21.937Z,12.71
2022-09-27T02:25:21.921Z,12.74
2022-09-27T02:26:21.917Z,12.74
2022-09-27T02:27:21.902Z,12.75
2022-09-27T02:28:21.906Z,12.77
2022-09-27T02:29:21.884Z,12.77
2022-09-27T02:30:21.868Z,12.75
2022-09-27T02:31:21.930Z,12.77
2022-09-27T02:32:21.837Z,12.75
2022-09-27T02:33:21.819Z,12.79
2022-09-27T02:34:21.819Z,12.78
2022-09-27T02:35:21.790Z,12.79
2022-09-27T02:36:21.783Z,12.79
2022-09-27T02:37:21.779Z,12.81
2022-09-27T02:38:21.758Z,12.82
2022-09-27T02:39:21.771Z,12.82
2022-09-27T02:40:21.767Z,12.84
2022-09-27T02:41:21.709Z,12.84
2022-09-27T02:42:21.710Z,12.84
2022-09-27T02:43:21.678Z,12.87
2022-09-27T02:44:21.696Z,12.85
2022-09-27T02:45:21.682Z,12.84
2022-09-27T02:46:21.721Z,12.84
2022-09-27T02:47:21.660Z,12.85
2022-09-27T02:48:21.629Z,12.84
2022-09-27T02:49:21.612Z,12.84
2022-09-27T02:50:21.599Z,12.85
2022-09-27T02:51:21.592Z,12.84
2022-09-27T02:52:21.605Z,12.82
2022-09-27T02:53:21.570Z,12.82
2022-09-27T02:54:21.596Z,12.84
2022-09-27T02:55:21.528Z,12.84
2022-09-27T02:56:21.579Z,12.84
2022-09-27T02:57:21.512Z,12.82
2022-09-27T02:58:21.550Z,12.82
2022-09-27T02:59:21.469Z,12.82
2022-09-27T03:00:21.466Z,12.81
2022-09-27T03:01:21.512Z,12.81
2022-09-27T03:02:21.513Z,12.81
2022-09-27T03:03:21.431Z,12.79
2022-09-27T03:04:21.440Z,12.79
2022-09-27T03:05:21.420Z,12.81
2022-09-27T03:06:21.401Z,12.82
2022-09-27T03:07:21.401Z,12.82
2022-09-27T03:08:21.383Z,12.81
2022-09-27T03:09:21.380Z,12.79
2022-09-27T03:10:21.344Z,12.82
2022-09-27T03:11:21.342Z,12.81
2022-09-27T03:12:21.309Z,12.79
2022-09-27T03:13:21.299Z,12.81
2022-09-27T03:14:21.330Z,12.78
2022-09-27T03:15:21.289Z,12.79
2022-09-27T03:16:21.304Z,12.81
2022-09-27T03:17:21.250Z,12.82
2022-09-27T03:18:21.258Z,12.82
2022-09-27T03:19:21.236Z,12.82
2022-09-27T03:20:21.232Z,12.84
2022-09-27T03:21:21.213Z,12.84
2022-09-27T03:22:21.248Z,12.81
2022-09-27T03:23:21.201Z,12.84
2022-09-27T03:24:21.232Z,12.84
2022-09-27T03:25:21.151Z,12.84
2022-09-27T03:26:21.124Z,12.82
2022-09-27T03:27:21.121Z,12.82
2022-09-27T03:28:21.102Z,12.81
2022-09-27T03:29:21.091Z,12.81
2022-09-27T03:30:21.105Z,12.81
2022-09-27T03:31:21.155Z,12.82
2022-09-27T03:32:21.113Z,12.79
2022-09-27T03:33:21.033Z,12.79
2022-09-27T03:34:21.031Z,12.79
2022-09-27T03:35:21.001Z,12.78
2022-09-27T03:36:21.001Z,12.78
2022-09-27T03:37:21.013Z,12.78
2022-09-27T03:38:20.991Z,12.78
2022-09-27T03:39:20.976Z,12.78
2022-09-27T03:40:20.984Z,12.78
2022-09-27T03:41:20.932Z,12.77
2022-09-27T03:42:20.944Z,12.78
2022-09-27T03:43:20.906Z,12.78
2022-09-27T03:44:20.893Z,12.79
2022-09-27T03:45:20.886Z,12.79
2022-09-27T03:46:20.994Z,12.81
2022-09-27T03:47:20.874Z,12.79
2022-09-27T03:48:24.515Z,12.79
2022-09-27T03:49:21.844Z,12.79
2022-09-27T03:50:20.880Z,12.78
2022-09-27T03:51:20.803Z,12.75
2022-09-27T03:52:20.834Z,12.75
2022-09-27T03:53:20.797Z,12.71
2022-09-27T03:54:20.773Z,12.70
2022-09-27T03:55:20.753Z,12.69
2022-09-27T03:56:20.742Z,12.69
2022-09-27T03:57:20.721Z,12.66
2022-09-27T03:58:20.725Z,12.66
2022-09-27T03:59:20.726Z,12.62
2022-09-27T04:00:20.837Z,12.59
2022-09-27T04:01:20.728Z,12.57
2022-09-27T04:02:20.767Z,12.56
2022-09-27T04:03:20.653Z,12.51
2022-09-27T04:04:20.648Z,12.46
2022-09-27T04:05:20.626Z,12.46
2022-09-27T04:06:20.623Z,12.45
2022-09-27T04:07:20.626Z,12.45
2022-09-27T04:08:20.637Z,12.44
2022-09-27T04:09:20.634Z,12.44
2022-09-27T04:10:20.565Z,12.42
2022-09-27T04:11:20.553Z,12.44
2022-09-27T04:12:20.544Z,12.44
2022-09-27T04:13:20.517Z,12.42
2022-09-27T04:14:20.514Z,12.42
2022-09-27T04:15:20.513Z,12.42
2022-09-27T04:16:20.543Z,12.45
2022-09-27T04:17:20.476Z,12.44
2022-09-27T04:18:20.467Z,12.42
2022-09-27T04:19:20.446Z,12.45
2022-09-27T04:20:20.456Z,12.44
2022-09-27T04:21:20.426Z,12.45
2022-09-27T04:22:20.405Z,12.44
2022-09-27T04:23:20.386Z,12.45
2022-09-27T04:24:20.374Z,12.44
2022-09-27T04:25:20.379Z,12.41
2022-09-27T04:26:20.354Z,12.41
2022-09-27T04:27:20.335Z,12.39
2022-09-27T04:28:20.325Z,12.39
2022-09-27T04:29:20.305Z,12.39
2022-09-27T04:30:20.327Z,12.39
2022-09-27T04:31:20.343Z,12.38
2022-09-27T04:32:20.362Z,12.37
2022-09-27T04:33:20.286Z,12.37
2022-09-27T04:34:20.268Z,12.37
2022-09-27T04:35:20.309Z,12.37
2022-09-27T04:36:20.232Z,12.37
2022-09-27T04:37:20.221Z,12.38
2022-09-27T04:38:20.212Z,12.34
2022-09-27T04:39:20.195Z,12.33
2022-09-27T04:40:20.242Z,12.31
2022-09-27T04:41:20.176Z,12.30
2022-09-27T04:42:20.176Z,12.30
2022-09-27T04:43:20.139Z,12.29
2022-09-27T04:44:20.125Z,12.30
2022-09-27T04:45:20.141Z,12.30
2022-09-27T04:46:20.166Z,12.29
2022-09-27T04:47:20.086Z,12.29
2022-09-27T04:48:20.067Z,12.29
2022-09-27T04:49:20.191Z,12.30
2022-09-27T04:50:20.038Z,12.29
2022-09-27T04:51:20.114Z,12.29
2022-09-27T04:52:20.019Z,12.29
2022-09-27T04:53:20.008Z,12.29
2022-09-27T04:54:19.994Z,12.27
2022-09-27T04:55:19.986Z,12.26
2022-09-27T04:56:19.966Z,12.27
2022-09-27T04:57:19.961Z,12.24
2022-09-27T04:58:19.947Z,12.24
2022-09-27T04:59:20.040Z,12.23
2022-09-27T05:00:19.908Z,12.24
2022-09-27T05:01:19.964Z,12.26
2022-09-27T05:02:19.990Z,12.26
2022-09-27T05:03:19.912Z,12.26
2022-09-27T05:04:19.859Z,12.26
2022-09-27T05:05:19.850Z,12.26
2022-09-27T05:06:19.839Z,12.26
2022-09-27T05:07:19.868Z,12.26
2022-09-27T05:08:19.831Z,12.26
2022-09-27T05:09:19.799Z,12.26
2022-09-27T05:10:19.799Z,12.26
2022-09-27T05:11:19.760Z,12.29
2022-09-27T05:12:19.751Z,12.27
2022-09-27T05:13:19.760Z,12.27
2022-09-27T05:14:19.779Z,12.29
2022-09-27T05:15:19.717Z,12.29
2022-09-27T05:16:19.791Z,12.27
2022-09-27T05:17:19.697Z,12.29
2022-09-27T05:18:19.700Z,12.29
2022-09-27T05:19:19.671Z,12.31
2022-09-27T05:20:19.669Z,12.31
2022-09-27T05:21:19.767Z,12.31
2022-09-27T05:22:19.629Z,12.33
2022-09-27T05:23:19.631Z,12.30
2022-09-27T05:24:19.612Z,12.31
2022-09-27T05:25:19.601Z,12.31
2022-09-27T05:26:19.569Z,12.30
2022-09-27T05:27:19.568Z,12.31
2022-09-27T05:28:19.562Z,12.30
2022-09-27T05:29:19.528Z,12.31
2022-09-27T05:30:19.521Z,12.37
2022-09-27T05:31:19.589Z,12.37
2022-09-27T05:32:19.484Z,12.38
2022-09-27T05:33:19.479Z,12.39
2022-09-27T05:34:19.490Z,12.39
2022-09-27T05:35:19.481Z,12.39
2022-09-27T05:36:19.451Z,12.41
2022-09-27T05:37:19.438Z,12.42
2022-09-27T05:38:19.420Z,12.45
2022-09-27T05:39:19.420Z,12.42
2022-09-27T05:40:39.733Z,12.44
2022-09-27T05:41:20.444Z,12.41
2022-09-27T05:42:19.361Z,12.41
2022-09-27T05:43:19.353Z,12.39
2022-09-27T05:44:19.349Z,12.38
2022-09-27T05:45:19.323Z,12.33
2022-09-27T05:46:19.411Z,12.33
2022-09-27T05:47:19.311Z,12.31
2022-09-27T05:48:19.352Z,12.31
2022-09-27T05:49:19.272Z,12.30
2022-09-27T05:50:19.291Z,12.29
2022-09-27T05:51:19.250Z,12.27
2022-09-27T05:52:21.438Z,12.27
2022-09-27T05:53:19.270Z,12.27
2022-09-27T05:54:19.211Z,12.27
2022-09-27T05:55:19.229Z,12.26
2022-09-27T05:56:19.182Z,12.24
2022-09-27T05:57:19.174Z,12.26
2022-09-27T05:58:19.160Z,12.26
2022-09-27T05:59:19.183Z,12.26
2022-09-27T06:00:19.133Z,12.26
2022-09-27T06:01:19.204Z,12.27
2022-09-27T06:02:19.160Z,12.30
2022-09-27T06:03:19.093Z,12.31
2022-09-27T06:04:19.074Z,12.37
2022-09-27T06:05:19.062Z,12.39
2022-09-27T06:06:19.050Z,12.44
2022-09-27T06:07:19.041Z,12.45
2022-09-27T06:08:19.032Z,12.48
2022-09-27T06:09:19.012Z,12.48
2022-09-27T06:10:19.001Z,12.51
2022-09-27T06:11:18.998Z,12.54
2022-09-27T06:12:18.982Z,12.57
2022-09-27T06:13:18.961Z,12.59
2022-09-27T06:14:18.955Z,12.60
2022-09-27T06:15:18.943Z,12.57
2022-09-27T06:16:18.988Z,12.52
2022-09-27T06:17:18.934Z,12.48
2022-09-27T06:18:18.906Z,12.46
2022-09-27T06:19:18.894Z,12.44
2022-09-27T06:20:18.884Z,12.42
2022-09-27T06:21:18.863Z,12.42
2022-09-27T06:22:18.853Z,12.42
2022-09-27T06:23:18.833Z,12.42
2022-09-27T06:24:18.812Z,12.42
2022-09-27T06:25:18.811Z,12.42
2022-09-27T06:26:18.786Z,12.42
2022-09-27T06:27:18.785Z,12.44
2022-09-27T06:28:18.775Z,12.46
2022-09-27T06:29:18.744Z,12.44
2022-09-27T06:30:20.474Z,12.46
2022-09-27T06:31:18.807Z,12.49
2022-09-27T06:32:18.721Z,12.49
2022-09-27T06:33:18.721Z,12.52
2022-09-27T06:34:18.693Z,12.52
2022-09-27T06:35:18.684Z,12.56
2022-09-27T06:36:18.681Z,12.57
2022-09-27T06:37:18.666Z,12.52
2022-09-27T06:38:18.658Z,12.51
2022-09-27T06:39:18.621Z,12.52
2022-09-27T06:40:18.639Z,12.46
2022-09-27T06:41:18.594Z,12.46
2022-09-27T06:42:18.588Z,12.45
2022-09-27T06:43:18.574Z,12.45
2022-09-27T06:44:18.616Z,12.44
2022-09-27T06:45:18.555Z,12.44
2022-09-27T06:46:18.568Z,12.41
2022-09-27T06:47:18.513Z,12.44
2022-09-27T06:48:18.503Z,12.44
2022-09-27T06:49:18.495Z,12.44
2022-09-27T06:50:18.499Z,12.41
2022-09-27T06:51:18.494Z,12.41
2022-09-27T06:52:18.456Z,12.44
2022-09-27T06:53:18.444Z,12.46
2022-09-27T06:54:18.453Z,12.49
2022-09-27T06:55:18.423Z,12.52
2022-09-27T06:56:18.436Z,12.51
2022-09-27T06:57:18.396Z,12.51
2022-09-27T06:58:18.386Z,12.52
2022-09-27T06:59:18.375Z,12.56
2022-09-27T07:00:18.377Z,12.57
2022-09-27T07:01:25.486Z,12.59
2022-09-27T07:02:18.402Z,12.59
2022-09-27T07:03:18.318Z,12.56
2022-09-27T07:04:18.318Z,12.59
2022-09-27T07:05:18.312Z,12.56
2022-09-27T07:06:18.271Z,12.54
2022-09-27T07:07:18.266Z,12.56
2022-09-27T07:08:18.267Z,12.56
2022-09-27T07:09:18.251Z,12.59
2022-09-27T07:10:18.259Z,12.57
2022-09-27T07:11:18.230Z,12.56
2022-09-27T07:12:18.249Z,12.56
2022-09-27T07:13:18.197Z,12.52
2022-09-27T07:14:18.185Z,12.51
2022-09-27T07:15:18.298Z,12.45
2022-09-27T07:16:18.208Z,12.46
2022-09-27T07:17:18.141Z,12.44
2022-09-27T07:18:18.184Z,12.45
2022-09-27T07:19:18.151Z,12.45
2022-09-27T07:20:18.661Z,12.46
2022-09-27T07:21:18.102Z,12.48
2022-09-27T07:22:18.110Z,12.51
2022-09-27T07:23:18.069Z,12.56
2022-09-27T07:24:18.051Z,12.54
2022-09-27T07:25:18.042Z,12.59
2022-09-27T07:26:18.040Z,12.59
2022-09-27T07:27:18.012Z,12.57
2022-09-27T07:28:21.776Z,12.62
2022-09-27T07:29:17.991Z,12.64
2022-09-27T07:30:17.980Z,12.63
2022-09-27T07:31:17.987Z,12.64
2022-09-27T07:32:17.962Z,12.74
2022-09-27T07:33:17.940Z,12.77
2022-09-27T07:34:17.919Z,12.77
2022-09-27T07:35:17.912Z,12.78
2022-09-27T07:36:17.897Z,12.85
2022-09-27T07:37:17.960Z,12.85
2022-09-27T07:38:17.870Z,12.92
2022-09-27T07:39:17.953Z,12.84
2022-09-27T07:40:17.879Z,12.82
2022-09-27T07:41:17.832Z,12.85
2022-09-27T07:42:17.813Z,12.87
2022-09-27T07:43:17.830Z,12.89
2022-09-27T07:44:17.809Z,12.95
2022-09-27T07:45:17.779Z,12.97
2022-09-27T07:46:17.812Z,13.04
2022-09-27T07:47:17.792Z,12.99
2022-09-27T07:48:17.835Z,13.02
2022-09-27T07:49:17.723Z,13.06
2022-09-27T07:50:17.713Z,13.11
2022-09-27T07:51:17.703Z,13.14
2022-09-27T07:52:17.683Z,13.14
2022-09-27T07:53:17.679Z,13.18
2022-09-27T07:54:17.664Z,13.20
2022-09-27T07:55:17.653Z,13.17
2022-09-27T07:56:17.640Z,13.18
2022-09-27T07:57:17.612Z,13.17
2022-09-27T07:58:17.592Z,13.14
2022-09-27T07:59:17.607Z,13.07
2022-09-27T08:00:17.563Z,13.00
2022-09-27T08:01:17.613Z,12.97
2022-09-27T08:02:17.583Z,12.93
2022-09-27T08:03:17.568Z,12.93
2022-09-27T08:04:17.535Z,12.95
2022-09-27T08:05:17.535Z,12.89
2022-09-27T08:06:17.495Z,12.92
2022-09-27T08:07:17.505Z,12.95
2022-09-27T08:08:17.476Z,12.95
2022-09-27T08:09:17.506Z,12.95
2022-09-27T08:10:17.465Z,12.96
2022-09-27T08:11:17.447Z,12.88
2022-09-27T08:12:17.464Z,12.87
2022-09-27T08:13:17.402Z,12.82
2022-09-27T08:14:17.474Z,12.75
2022-09-27T08:15:17.430Z,12.77
2022-09-27T08:16:17.388Z,12.77
2022-09-27T08:17:17.363Z,12.74
2022-09-27T08:18:17.333Z,12.71
2022-09-27T08:19:17.480Z,12.74
2022-09-27T08:20:17.316Z,12.75
2022-09-27T08:21:17.325Z,12.75
2022-09-27T08:22:17.293Z,12.74
2022-09-27T08:23:17.276Z,12.74
2022-09-27T08:24:17.298Z,12.75
2022-09-27T08:25:17.255Z,12.77
2022-09-27T08:26:17.236Z,12.79
2022-09-27T08:27:17.245Z,12.81
2022-09-27T08:28:17.205Z,12.82
2022-09-27T08:29:17.267Z,12.81
2022-09-27T08:30:17.179Z,12.79
2022-09-27T08:31:17.395Z,12.78
2022-09-27T08:32:22.173Z,12.78
2022-09-27T08:33:18.145Z,12.79
2022-09-27T08:34:17.266Z,12.78
2022-09-27T08:35:17.125Z,12.74
2022-09-27T08:36:17.119Z,12.71
2022-09-27T08:37:17.178Z,12.70
2022-09-27T08:38:17.078Z,12.74
2022-09-27T08:39:17.201Z,12.77
2022-09-27T08:40:17.099Z,12.79
2022-09-27T08:41:17.059Z,12.81
2022-09-27T08:42:17.027Z,12.85
2022-09-27T08:43:17.017Z,12.89
2022-09-27T08:44:17.121Z,12.87
2022-09-27T08:45:16.994Z,12.87
2022-09-27T08:46:17.025Z,12.85
2022-09-27T08:47:16.966Z,12.81
2022-09-27T08:48:16.967Z,12.85
2022-09-27T08:49:16.947Z,12.87
2022-09-27T08:50:16.936Z,12.92
2022-09-27T08:51:16.920Z,12.92
2022-09-27T08:52:16.906Z,12.93
2022-09-27T08:53:16.877Z,13.00
2022-09-27T08:54:17.008Z,13.02
2022-09-27T08:55:16.856Z,13.03
2022-09-27T08:56:16.836Z,13.03
2022-09-27T08:57:16.826Z,13.04
2022-09-27T08:58:16.827Z,13.06
2022-09-27T08:59:16.816Z,13.06
2022-09-27T09:00:16.798Z,13.03
2022-09-27T09:01:16.839Z,13.03
2022-09-27T09:02:16.835Z,13.03
2022-09-27T09:03:16.769Z,13.02
2022-09-27T09:04:16.974Z,13.02
2022-09-27T09:05:16.730Z,13.02
2022-09-27T09:06:16.719Z,12.89
2022-09-27T09:07:16.963Z,12.87
2022-09-27T09:08:16.688Z,12.87
2022-09-27T09:09:16.667Z,12.87
2022-09-27T09:10:16.648Z,12.84
2022-09-27T09:11:16.627Z,12.84
2022-09-27T09:12:16.629Z,12.85
2022-09-27T09:13:16.619Z,12.82
2022-09-27T09:14:16.899Z,12.82
2022-09-27T09:15:16.577Z,12.82
2022-09-27T09:16:16.669Z,12.84
2022-09-27T09:17:16.571Z,12.82
2022-09-27T09:18:16.629Z,12.87
2022-09-27T09:19:16.540Z,12.89
2022-09-27T09:20:17.494Z,12.93
2022-09-27T09:21:16.510Z,13.00
2022-09-27T09:22:16.502Z,13.06
2022-09-27T09:23:16.480Z,13.12
2022-09-27T09:24:16.562Z,13.12
2022-09-27T09:25:16.448Z,13.15
2022-09-27T09:26:16.440Z,13.24
2022-09-27T09:27:16.438Z,13.22
2022-09-27T09:28:16.419Z,13.22
2022-09-27T09:29:16.426Z,13.24
2022-09-27T09:30:16.399Z,13.25
2022-09-27T09:31:16.430Z,13.29
2022-09-27T09:32:16.361Z,13.29
2022-09-27T09:33:16.775Z,13.30
2022-09-27T09:34:16.452Z,13.30
2022-09-27T09:35:16.331Z,13.30
2022-09-27T09:36:16.302Z,13.33
2022-09-27T09:37:16.289Z,13.40
2022-09-27T09:38:16.282Z,13.49
2022-09-27T09:39:16.261Z,13.49
2022-09-27T09:40:16.311Z,13.49
2022-09-27T09:41:16.241Z,13.47
2022-09-27T09:42:16.220Z,13.54
2022-09-27T09:43:16.209Z,13.61
2022-09-27T09:44:16.380Z,13.73
2022-09-27T09:45:16.199Z,13.80
2022-09-27T09:46:16.210Z,13.84
2022-09-27T09:47:16.158Z,13.91
2022-09-27T09:48:16.143Z,13.99
2022-09-27T09:49:16.134Z,14.07
2022-09-27T09:50:16.128Z,14.12
2022-09-27T09:51:16.112Z,14.16
2022-09-27T09:52:16.092Z,14.12
2022-09-27T09:53:16.074Z,14.16
2022-09-27T09:54:16.113Z,14.20
2022-09-27T09:55:16.040Z,14.13
2022-09-27T09:56:16.054Z,14.13
2022-09-27T09:57:16.024Z,14.14
2022-09-27T09:58:19.793Z,14.17
2022-09-27T09:59:16.009Z,14.14
2022-09-27T10:00:15.994Z,14.12
2022-09-27T10:01:16.023Z,14.07
2022-09-27T10:02:16.019Z,14.07
2022-09-27T10:03:15.962Z,14.09
2022-09-27T10:04:16.064Z,14.04
2022-09-27T10:05:15.912Z,13.91
2022-09-27T10:06:15.902Z,13.94
2022-09-27T10:07:15.905Z,14.06
2022-09-27T10:08:15.884Z,14.13
2022-09-27T10:09:15.863Z,14.20
2022-09-27T10:10:15.863Z,14.35
2022-09-27T10:11:15.833Z,14.44
2022-09-27T10:12:15.848Z,14.47
2022-09-27T10:13:15.835Z,14.47
2022-09-27T10:14:15.990Z,14.38
2022-09-27T10:15:15.794Z,14.34
2022-09-27T10:16:15.819Z,14.29
2022-09-27T10:17:15.769Z,14.25
2022-09-27T10:18:15.775Z,14.19
2022-09-27T10:19:15.755Z,14.19
2022-09-27T10:20:15.725Z,14.16
2022-09-27T10:21:15.704Z,14.14
2022-09-27T10:22:15.754Z,14.12
2022-09-27T10:23:15.677Z,14.10
2022-09-27T10:24:18.359Z,13.96
2022-09-27T10:25:15.655Z,13.87
2022-09-27T10:26:15.644Z,13.79
2022-09-27T10:27:15.633Z,13.70
2022-09-27T10:28:15.646Z,13.69
2022-09-27T10:29:15.606Z,13.65
2022-09-27T10:30:15.595Z,13.59
2022-09-27T10:31:15.625Z,13.61
2022-09-27T10:32:15.575Z,13.59
2022-09-27T10:33:15.557Z,13.61
2022-09-27T10:34:15.628Z,13.56
2022-09-27T10:35:16.777Z,13.58
2022-09-27T10:36:15.523Z,13.61
2022-09-27T10:37:15.506Z,13.67
2022-09-27T10:38:15.486Z,13.67
2022-09-27T10:39:15.486Z,13.70
2022-09-27T10:40:15.535Z,13.71
2022-09-27T10:41:15.457Z,13.74
2022-09-27T10:42:15.528Z,13.77
2022-09-27T10:43:15.425Z,13.81
2022-09-27T10:44:15.609Z,13.84
2022-09-27T10:45:15.406Z,13.80
2022-09-27T10:46:15.388Z,13.79
2022-09-27T10:47:15.376Z,13.83
2022-09-27T10:48:15.360Z,13.89
2022-09-27T10:49:15.346Z,13.89
2022-09-27T10:50:32.475Z,13.96
2022-09-27T10:51:16.316Z,14.10
2022-09-27T10:52:15.306Z,14.25
2022-09-27T10:53:15.297Z,14.37
2022-09-27T10:54:15.465Z,14.62
2022-09-27T10:55:15.308Z,14.88
2022-09-27T10:56:15.259Z,15.08
2022-09-27T10:57:15.246Z,15.27
2022-09-27T10:58:15.229Z,15.21
2022-09-27T10:59:15.229Z,15.31
2022-09-27T11:00:15.207Z,15.45
2022-09-27T11:01:15.266Z,15.52
2022-09-27T11:02:15.184Z,15.57
2022-09-27T11:03:15.157Z,15.63
2022-09-27T11:04:15.282Z,15.42
2022-09-27T11:05:15.888Z,15.49
2022-09-27T11:06:15.139Z,15.56
2022-09-27T11:07:15.107Z,15.72
2022-09-27T11:08:15.101Z,15.82
2022-09-27T11:09:15.089Z,15.79
2022-09-27T11:10:15.130Z,15.76
2022-09-27T11:11:15.079Z,15.78
2022-09-27T11:12:15.049Z,15.70
2022-09-27T11:13:15.030Z,15.57
2022-09-27T11:14:15.038Z,15.57
2022-09-27T11:15:15.004Z,15.56
2022-09-27T11:16:15.064Z,15.52
2022-09-27T11:17:14.998Z,15.56
2022-09-27T11:18:14.966Z,15.46
2022-09-27T11:19:15.704Z,15.49
2022-09-27T11:20:14.945Z,15.60
2022-09-27T11:21:14.928Z,15.57
2022-09-27T11:22:14.908Z,15.35
2022-09-27T11:23:14.899Z,15.33
2022-09-27T11:24:15.030Z,15.39
2022-09-27T11:25:14.908Z,15.54
2022-09-27T11:26:14.861Z,15.74
2022-09-27T11:27:14.920Z,15.85
2022-09-27T11:28:14.852Z,15.97
2022-09-27T11:29:14.831Z,16.01
2022-09-27T11:30:14.863Z,16.00
2022-09-27T11:31:19.440Z,15.97
2022-09-27T11:32:15.831Z,16.04
2022-09-27T11:33:14.782Z,16.12
2022-09-27T11:34:14.759Z,16.09
2022-09-27T11:35:14.879Z,16.04
2022-09-27T11:36:14.792Z,15.89
2022-09-27T11:37:14.711Z,15.96
2022-09-27T11:38:29.609Z,16.00
2022-09-27T11:39:15.890Z,16.04
2022-09-27T11:40:14.730Z,16.09
2022-09-27T11:41:14.672Z,16.07
2022-09-27T11:42:14.664Z,16.06
2022-09-27T11:43:14.658Z,16.09
2022-09-27T11:44:14.647Z,16.03
2022-09-27T11:46:20.789Z,15.68
2022-09-27T11:47:15.695Z,15.68
2022-09-27T11:48:14.580Z,15.70
2022-09-27T11:49:14.656Z,15.72
2022-09-27T11:50:14.553Z,15.74
2022-09-27T11:51:14.533Z,15.79
2022-09-27T11:52:14.525Z,15.76
2022-09-27T11:53:14.525Z,15.78
2022-09-27T11:54:14.632Z,15.74
2022-09-27T11:55:14.507Z,15.79
2022-09-27T11:56:14.493Z,15.82
2022-09-27T11:57:14.475Z,15.94
2022-09-27T11:58:14.455Z,16.06
2022-09-27T11:59:14.510Z,16.25
2022-09-27T12:00:14.432Z,16.35
2022-09-27T12:01:14.409Z,16.38
2022-09-27T12:02:14.495Z,16.25
2022-09-27T12:03:14.480Z,16.14
2022-09-27T12:04:14.422Z,15.89
2022-09-27T12:05:14.358Z,15.78
2022-09-27T12:06:14.359Z,15.51
2022-09-27T12:07:14.336Z,15.38
2022-09-27T12:08:14.324Z,15.21
2022-09-27T12:09:14.423Z,15.17
2022-09-27T12:10:14.297Z,15.11
2022-09-27T12:11:14.285Z,15.06
2022-09-27T12:12:14.278Z,15.03
2022-09-27T12:13:14.259Z,14.84
2022-09-27T12:14:14.245Z,14.67
2022-09-27T12:15:14.245Z,14.31
2022-09-27T12:16:14.252Z,13.79
2022-09-27T12:17:14.205Z,13.20
2022-09-27T12:18:14.195Z,12.66
2022-09-27T12:19:14.186Z,12.29
2022-09-27T12:20:14.205Z,11.89
2022-09-27T12:21:14.209Z,11.77
2022-09-27T12:22:14.147Z,11.53
2022-09-27T12:23:14.178Z,11.36
2022-09-27T12:24:14.123Z,11.17
2022-09-27T12:25:18.299Z,11.09
2022-09-27T12:26:15.117Z,11.03
2022-09-27T12:27:14.081Z,10.98
2022-09-27T12:28:14.120Z,10.89
2022-09-27T12:29:14.248Z,10.86
2022-09-27T12:30:14.047Z,10.86
2022-09-27T12:31:30.237Z,10.83
2022-09-27T12:32:15.023Z,10.81
2022-09-27T12:33:13.996Z,10.76
2022-09-27T12:34:18.738Z,10.74
2022-09-27T12:35:14.967Z,10.76
2022-09-27T12:36:13.969Z,10.73
2022-09-27T12:37:13.978Z,10.71
2022-09-27T12:38:13.946Z,10.70
2022-09-27T12:39:13.971Z,10.70
2022-09-27T12:40:13.976Z,10.70
2022-09-27T12:41:13.900Z,10.73
2022-09-27T12:42:13.932Z,10.74
2022-09-27T12:43:13.879Z,10.74
2022-09-27T12:44:13.863Z,10.74
2022-09-27T12:45:13.828Z,10.76
2022-09-27T12:46:13.849Z,10.78
2022-09-27T12:47:13.807Z,10.80
2022-09-27T12:48:13.802Z,10.88
2022-09-27T12:49:13.873Z,10.95
2022-09-27T12:50:13.892Z,11.02
2022-09-27T12:51:13.798Z,11.16
2022-09-27T12:52:13.767Z,11.24
2022-09-27T12:53:13.740Z,11.38